KLGA

LaGuardia Airport

Airport
ICAO code
KLGA
Summary
ICAO Region
NAM
ICAO Territory
Location

East Elmhurst, Queens, New York,

Coordinates
40° 46' 38" N , 73° 52' 21" W
KCC
Airport BS
Bird Strike
Airport RE
Engineered Materials Arresting System
Metar
Observation
KLGA 070351Z 15015G21KT 2SM RA BR SCT008 BKN012 OVC021 13/12 A3023 RMK AO2 SLP236 P0018 T01330117
Station
New York, La Guardia Airport
Date/Time
2022-12-07 03:51:00
Wind direction
150°
Wind speed
15 kts
Lowest cloud amount
scattered clouds
Temperature
13.3°C
Dew point
11.7°C
Humidity
90%
Weather condition

Description

Airport serving the city of New York, NY, USA.

Climatology

Humid “subtropical” climate (Köppen climate classification Cfa) - characterized by hot, humid summers and cool winters. Significant amounts of precipitation occur in all seasons in most areas. Winter rainfall (and sometimes snowfall) is associated with large storms that the westerlies steer from west to east. Most summer rainfall occurs during thunderstorms.

Runways

Designator Length Width Surface Rops
4/22 2134 46 ASP Yes/Yes
13/31 2134 46 ASP Yes/Yes

SKYbrary Partners:

Safety knowledge contributed by: